Time;durP1;ratioP1;P1;durP2;ratioP2;P2;SDS_P1;SDS_P2;PMS_P1;PMS_P2;Temp;Humidity;BMP_temperature;BMP_pressure;BME280_temperature;BME280_humidity;BME280_pressure;Samples;Min_cycle;Max_cycle;Signal;HPM_P1;HPM_P2
2022/05/22 00:00:29;;;;;;;32.13;30.13;;;;;;;18.82;100.00;100430.72;5014471;28;20046;-79
2022/05/22 00:02:56;;;;;;;32.78;30.67;;;;;;;18.68;100.00;100432.25;5017785;28;20054;-82
2022/05/22 00:05:33;;;;;;;33.30;31.10;;;;;;;18.67;100.00;100431.47;5027631;28;20087;-82
2022/05/22 00:08:02;;;;;;;35.00;32.50;;;;;;;18.44;100.00;100426.56;5021104;28;20056;-81
2022/05/22 00:10:32;;;;;;;33.67;31.48;;;;;;;18.39;100.00;100432.72;5021222;28;20046;-81
2022/05/22 00:13:06;;;;;;;34.13;31.77;;;;;;;18.27;100.00;100435.63;5016447;28;20115;-82
2022/05/22 00:15:41;;;;;;;34.63;31.98;;;;;;;18.13;100.00;100425.66;5015826;28;20049;-79
2022/05/22 00:18:14;;;;;;;40.25;37.75;;;;;;;17.56;100.00;100446.00;5025697;28;20081;-82
2022/05/22 00:20:41;;;;;;;39.15;36.47;;;;;;;17.67;100.00;100447.72;5015824;28;20080;-81
2022/05/22 00:23:08;;;;;;;50.33;45.33;;;;;;;17.84;100.00;100445.66;5019955;28;20046;-83
2022/05/22 00:25:38;;;;;;;47.33;43.60;;;;;;;17.51;100.00;100443.28;5026428;28;20049;-82
2022/05/22 00:28:06;;;;;;;42.90;39.42;;;;;;;17.41;100.00;100435.97;5014293;28;20478;-79
2022/05/22 00:30:34;;;;;;;45.70;42.10;;;;;;;17.39;100.00;100441.59;5015971;28;20046;-80
2022/05/22 00:33:02;;;;;;;45.42;41.78;;;;;;;17.44;100.00;100440.03;5016260;28;20112;-78
2022/05/22 00:35:36;;;;;;;43.35;40.03;;;;;;;17.49;100.00;100437.34;5035243;28;20485;-83
2022/05/22 00:38:04;;;;;;;48.40;44.22;;;;;;;17.27;100.00;100432.09;5014655;28;20050;-81
2022/05/22 00:40:38;;;;;;;53.53;48.38;;;;;;;17.30;100.00;100443.13;5007746;28;20128;-82
2022/05/22 00:43:05;;;;;;;49.63;45.38;;;;;;;17.12;100.00;100440.84;4995489;28;20450;-83
2022/05/22 00:45:31;;;;;;;47.90;43.63;;;;;;;16.68;100.00;100438.28;5013799;28;20061;-80
2022/05/22 00:47:58;;;;;;;51.83;47.58;;;;;;;16.94;100.00;100442.88;5014317;28;20050;-82
2022/05/22 00:50:25;;;;;;;46.15;42.20;;;;;;;16.67;100.00;100436.66;5006465;28;20477;-82
2022/05/22 00:52:57;;;;;;;51.35;47.67;;;;;;;16.50;100.00;100444.78;5017347;28;20608;-82
2022/05/22 00:55:29;;;;;;;47.28;44.08;;;;;;;16.62;100.00;100460.75;5010369;28;20450;-82
2022/05/22 00:58:00;;;;;;;;;;;;;;;16.38;100.00;100469.06;5014978;28;20056;-81
2022/05/22 01:00:35;;;;;;;44.00;40.50;;;;;;;16.64;100.00;100461.28;5014544;28;19975;-83
2022/05/22 01:05:52;;;;;;;43.92;40.42;;;;;;;16.49;100.00;100457.41;5015356;28;20065;-79
2022/05/22 01:08:19;;;;;;;43.95;40.30;;;;;;;16.39;100.00;100465.31;5014444;28;20457;-78
2022/05/22 01:10:55;;;;;;;45.42;41.90;;;;;;;15.81;100.00;100464.03;5016535;28;20050;-84
2022/05/22 01:13:30;;;;;;;45.00;41.72;;;;;;;16.18;100.00;100461.56;5017671;28;20096;-82
2022/05/22 01:15:59;;;;;;;45.78;42.22;;;;;;;16.34;100.00;100467.94;5030614;28;20052;-80
2022/05/22 01:18:27;;;;;;;44.55;41.13;;;;;;;16.33;100.00;100450.22;5019680;28;20140;-82
2022/05/22 01:20:54;;;;;;;42.33;38.83;;;;;;;16.36;100.00;100460.44;5025559;28;20057;-79
2022/05/22 01:23:23;;;;;;;46.30;42.72;;;;;;;16.03;100.00;100470.22;5022747;28;20056;-82
2022/05/22 01:25:51;;;;;;;45.25;41.65;;;;;;;16.11;100.00;100458.28;5019706;28;20490;-79
2022/05/22 01:28:21;;;;;;;44.33;41.03;;;;;;;15.70;100.00;100467.59;5022361;28;20049;-83
2022/05/22 01:30:50;;;;;;;43.10;40.00;;;;;;;15.59;100.00;100461.28;5016492;28;20046;-82
2022/05/22 01:33:24;;;;;;;43.47;40.47;;;;;;;15.83;100.00;100469.97;5017179;28;20137;-82
2022/05/22 01:35:51;;;;;;;42.70;39.33;;;;;;;15.00;100.00;100463.53;5018080;28;20453;-79
2022/05/22 01:38:38;;;;;;;44.33;41.28;;;;;;;15.20;100.00;100463.88;5017365;28;20157;-83
2022/05/22 01:41:11;;;;;;;44.75;41.15;;;;;;;15.24;100.00;100461.53;5025958;28;20050;-82
2022/05/22 01:43:43;;;;;;;42.03;39.30;;;;;;;15.36;100.00;100459.56;5017204;28;20046;-83
2022/05/22 01:46:12;;;;;;;41.22;38.25;;;;;;;15.64;100.00;100468.56;5004629;28;20056;-83
2022/05/22 01:48:40;;;;;;;39.10;35.70;;;;;;;15.05;100.00;100466.31;5002065;28;20050;-82
2022/05/22 01:51:11;;;;;;;39.30;36.25;;;;;;;15.28;100.00;100468.84;5017430;28;20426;-82
2022/05/22 01:53:39;;;;;;;44.80;41.63;;;;;;;15.32;100.00;100478.00;5019929;28;20113;-79
2022/05/22 01:56:09;;;;;;;46.25;42.65;;;;;;;14.48;100.00;100485.81;5017209;28;20115;-82
2022/05/22 01:58:36;;;;;;;49.03;45.33;;;;;;;15.12;100.00;100491.81;5017195;28;20091;-80
2022/05/22 02:01:03;;;;;;;46.72;43.42;;;;;;;14.57;100.00;100489.75;5134687;23;20053;-81
2022/05/22 02:03:30;;;;;;;49.35;45.38;;;;;;;14.37;100.00;100483.97;5039447;28;20377;-80
2022/05/22 02:05:57;;;;;;;46.22;42.55;;;;;;;14.84;100.00;100487.31;5035937;28;20503;-79
2022/05/22 02:08:23;;;;;;;49.45;45.70;;;;;;;14.69;100.00;100494.25;5034421;28;20045;-82
2022/05/22 02:10:53;;;;;;;50.85;46.58;;;;;;;14.66;100.00;100496.34;5035473;28;20058;-82
2022/05/22 02:13:22;;;;;;;47.97;44.28;;;;;;;14.27;100.00;100499.78;5032933;28;20103;-82
2022/05/22 02:15:55;;;;;;;51.75;47.85;;;;;;;14.58;100.00;100499.41;5036370;28;20049;-81
2022/05/22 02:18:23;;;;;;;50.20;46.42;;;;;;;14.73;100.00;100504.22;5025670;28;20062;-82
2022/05/22 02:20:59;;;;;;;51.72;47.17;;;;;;;14.95;100.00;100501.69;5022503;28;20077;-80
2022/05/22 02:23:28;;;;;;;47.30;43.40;;;;;;;14.83;100.00;100507.09;5036550;28;20045;-79
2022/05/22 02:25:57;;;;;;;46.72;42.92;;;;;;;14.56;100.00;100517.53;5030668;28;20524;-79
2022/05/22 02:28:28;;;;;;;50.95;46.15;;;;;;;14.53;100.00;100510.00;5036811;28;20049;-81
2022/05/22 02:31:03;;;;;;;46.83;43.10;;;;;;;14.97;100.00;100514.81;5021750;28;20474;-79
2022/05/22 02:33:30;;;;;;;43.15;39.50;;;;;;;14.49;100.00;100499.97;5029010;28;20429;-80
2022/05/22 02:36:01;;;;;;;44.38;40.95;;;;;;;14.63;100.00;100510.19;5028910;28;20484;-83
2022/05/22 02:38:28;;;;;;;43.70;39.90;;;;;;;14.68;100.00;100525.53;5030000;28;20037;-82
2022/05/22 02:40:58;;;;;;;46.10;42.30;;;;;;;14.84;100.00;100524.75;5035868;28;20111;-82
2022/05/22 02:43:25;;;;;;;43.85;40.42;;;;;;;14.65;100.00;100534.00;5034875;28;20389;-80
2022/05/22 02:45:52;;;;;;;45.17;41.45;;;;;;;14.72;100.00;100545.38;5035117;28;20050;-78
2022/05/22 02:48:21;;;;;;;48.88;44.67;;;;;;;14.66;100.00;100546.31;5036113;28;20149;-80
2022/05/22 02:50:48;;;;;;;45.78;42.03;;;;;;;15.01;100.00;100548.88;5034543;28;20053;-79
2022/05/22 02:53:18;;;;;;;44.97;40.88;;;;;;;14.84;100.00;100548.81;5035499;28;20057;-82
2022/05/22 02:55:45;;;;;;;42.97;39.47;;;;;;;14.76;100.00;100556.41;5026837;28;20049;-81
2022/05/22 02:58:14;;;;;;;43.10;39.13;;;;;;;14.39;100.00;100554.81;5036543;28;20462;-81
2022/05/22 03:00:41;;;;;;;48.25;44.45;;;;;;;14.48;100.00;100559.81;5035686;28;20045;-83
2022/05/22 03:03:08;;;;;;;47.05;43.17;;;;;;;14.90;100.00;100557.75;5035739;28;20049;-83
2022/05/22 03:08:26;;;;;;;41.63;38.28;;;;;;;15.10;100.00;100568.03;5039117;28;20605;-79
2022/05/22 03:10:56;;;;;;;42.67;39.38;;;;;;;15.04;100.00;100569.81;5039883;28;20052;-79
2022/05/22 03:13:27;;;;;;;44.45;41.15;;;;;;;15.17;100.00;100567.88;5039557;28;20076;-84
2022/05/22 03:15:58;;;;;;;43.38;39.88;;;;;;;15.19;100.00;100571.13;5036563;28;20049;-83
2022/05/22 03:18:35;;;;;;;47.13;43.08;;;;;;;14.98;100.00;100564.59;5040416;28;20045;-83
2022/05/22 03:21:12;;;;;;;42.85;39.38;;;;;;;14.97;100.00;100581.69;5040037;28;20461;-83
2022/05/22 03:23:46;;;;;;;43.85;40.22;;;;;;;14.87;100.00;100576.94;5029465;28;20119;-82
2022/05/22 03:26:19;;;;;;;41.95;38.75;;;;;;;14.96;100.00;100582.72;5041490;28;20052;-82
2022/05/22 03:28:54;;;;;;;44.08;40.92;;;;;;;15.09;100.00;100582.44;5040551;28;20416;-81
2022/05/22 03:31:41;;;;;;;41.83;38.42;;;;;;;15.14;100.00;100582.53;5025763;28;20049;-80
2022/05/22 03:34:18;;;;;;;42.22;39.10;;;;;;;15.40;100.00;100585.66;5039330;28;20049;-81
2022/05/22 03:37:00;;;;;;;42.85;39.05;;;;;;;15.33;100.00;100600.00;5032877;28;20071;-82
2022/05/22 03:39:27;;;;;;;45.22;41.80;;;;;;;15.65;100.00;100586.13;5033278;28;20049;-83
2022/05/22 03:41:54;;;;;;;42.05;38.53;;;;;;;15.88;100.00;100585.16;5039627;28;20045;-81
2022/05/22 03:44:23;;;;;;;41.13;38.03;;;;;;;15.95;100.00;100580.47;5036515;28;20049;-81
2022/05/22 03:46:54;;;;;;;39.88;36.65;;;;;;;16.15;100.00;100571.91;5043196;28;20045;-80
2022/05/22 03:49:28;;;;;;;39.17;36.30;;;;;;;15.98;100.00;100581.84;5037187;28;20379;-83
2022/05/22 03:51:58;;;;;;;38.42;35.60;;;;;;;15.85;100.00;100588.34;5041562;28;20049;-81
2022/05/22 03:54:32;;;;;;;41.33;37.65;;;;;;;16.16;100.00;100580.78;5023958;28;20121;-81
2022/05/22 03:57:09;;;;;;;38.30;35.38;;;;;;;16.06;100.00;100581.41;5035691;28;20076;-84
2022/05/22 03:59:50;;;;;;;39.53;36.42;;;;;;;16.08;100.00;100591.91;5039409;28;20133;-81
2022/05/22 04:02:23;;;;;;;39.25;36.25;;;;;;;16.17;100.00;100591.25;5028824;28;20104;-81
2022/05/22 04:04:55;;;;;;;41.50;38.40;;;;;;;16.30;100.00;100597.31;5035077;28;20060;-80
2022/05/22 04:07:29;;;;;;;44.60;41.33;;;;;;;16.89;100.00;100592.22;5033585;28;20045;-83
2022/05/22 04:10:03;;;;;;;42.75;39.33;;;;;;;16.65;100.00;100581.69;5036350;28;20535;-81
2022/05/22 04:12:30;;;;;;;40.53;37.55;;;;;;;17.09;100.00;100583.56;5037617;28;20056;-82
2022/05/22 04:14:59;;;;;;;40.80;37.40;;;;;;;16.89;100.00;100587.66;5039806;28;20045;-80
2022/05/22 04:17:27;;;;;;;38.67;35.60;;;;;;;17.20;100.00;100590.66;5028926;28;20045;-80
2022/05/22 04:20:00;;;;;;;38.33;35.25;;;;;;;17.42;100.00;100592.50;5036069;28;20045;-83
2022/05/22 04:22:30;;;;;;;36.70;34.13;;;;;;;17.44;100.00;100591.16;5032177;28;20101;-82
2022/05/22 04:25:12;;;;;;;36.00;33.35;;;;;;;17.26;100.00;100584.28;5030712;28;20088;-83
2022/05/22 04:27:43;;;;;;;35.78;33.17;;;;;;;17.20;100.00;100574.56;5033061;28;20073;-81
2022/05/22 04:30:24;;;;;;;36.92;34.42;;;;;;;17.21;100.00;100570.00;5034419;28;20045;-82
2022/05/22 04:33:02;;;;;;;;;;;;;;;;;;;;;
2022/05/22 04:35:29;;;;;;;40.33;37.20;;;;;;;17.61;100.00;100559.66;5034919;28;20136;-81
2022/05/22 04:38:01;;;;;;;39.85;36.58;;;;;;;17.81;100.00;100566.25;5025245;28;20096;-84
2022/05/22 04:40:29;;;;;;;39.63;36.53;;;;;;;18.07;100.00;100564.56;5036428;28;20053;-81
2022/05/22 04:42:59;;;;;;;38.03;35.03;;;;;;;18.20;100.00;100566.78;5036241;28;20045;-82
2022/05/22 04:45:29;;;;;;;36.33;33.55;;;;;;;18.26;100.00;100567.63;5038991;28;20053;-85
2022/05/22 04:48:00;;;;;;;35.35;32.47;;;;;;;18.40;100.00;100574.16;5039445;28;20049;-82
2022/05/22 04:50:32;;;;;;;34.75;32.15;;;;;;;18.46;100.00;100575.00;5038639;28;20049;-84
2022/05/22 04:53:01;;;;;;;32.83;30.42;;;;;;;18.67;100.00;100575.88;5039557;28;20056;-82
2022/05/22 04:55:33;;;;;;;30.98;28.50;;;;;;;18.99;100.00;100573.06;5040723;28;20611;-82
2022/05/22 04:58:00;;;;;;;33.20;30.57;;;;;;;19.04;100.00;100577.66;5023329;28;20049;-84
2022/05/22 05:00:28;;;;;;;32.72;30.00;;;;;;;19.17;100.00;100564.50;5030725;28;20768;-82
2022/05/22 05:02:56;;;;;;;30.20;28.17;;;;;;;19.38;100.00;100575.31;5028742;28;20417;-83
2022/05/22 05:05:24;;;;;;;27.77;26.00;;;;;;;19.70;100.00;100571.56;5030812;28;20409;-80
2022/05/22 05:07:51;;;;;;;26.27;24.30;;;;;;;19.98;100.00;100568.31;5037279;28;20054;-82
2022/05/22 05:10:25;;;;;;;25.15;23.55;;;;;;;20.04;100.00;100564.53;5039396;28;20045;-82
2022/05/22 05:12:59;;;;;;;24.20;22.50;;;;;;;20.28;100.00;100566.63;5038090;28;20083;-83
2022/05/22 05:15:30;;;;;;;25.48;23.77;;;;;;;20.45;100.00;100560.91;5035257;28;20050;-87
2022/05/22 05:17:58;;;;;;;25.13;23.33;;;;;;;20.40;100.00;100559.06;5028739;28;20041;-80
2022/05/22 05:20:32;;;;;;;25.38;22.92;;;;;;;20.57;100.00;100564.13;5021619;28;20049;-87
2022/05/22 05:23:11;;;;;;;24.60;22.80;;;;;;;20.51;100.00;100563.31;5036910;28;20049;-85
2022/05/22 05:25:38;;;;;;;25.20;23.50;;;;;;;20.52;100.00;100564.16;5020253;28;20050;-86
2022/05/22 05:28:05;;;;;;;39.13;36.25;;;;;;;20.52;100.00;100561.47;5035445;28;20108;-80
2022/05/22 05:30:33;;;;;;;37.00;34.53;;;;;;;20.72;100.00;100561.34;5038012;28;20056;-85
2022/05/22 05:33:00;;;;;;;25.27;23.20;;;;;;;20.78;100.00;100559.44;5036362;28;20049;-82
2022/05/22 05:35:28;;;;;;;25.15;23.15;;;;;;;20.99;100.00;100566.34;5036300;28;20060;-87
2022/05/22 05:37:56;;;;;;;25.55;23.83;;;;;;;21.09;100.00;100565.50;5036068;28;20058;-84
2022/05/22 05:40:24;;;;;;;25.85;23.90;;;;;;;21.21;100.00;100576.75;5036229;28;20049;-81
2022/05/22 05:42:52;;;;;;;27.23;24.90;;;;;;;21.04;100.00;100579.81;5034269;28;20505;-80
2022/05/22 05:45:39;;;;;;;26.25;23.60;;;;;;;21.07;100.00;100575.75;5035624;28;20045;-85
2022/05/22 05:48:08;;;;;;;24.85;22.98;;;;;;;21.23;100.00;100571.88;5022469;28;20120;-84
2022/05/22 05:50:35;;;;;;;26.08;24.15;;;;;;;21.46;100.00;100566.91;5031733;28;20049;-81
2022/05/22 05:53:03;;;;;;;27.48;24.60;;;;;;;21.51;100.00;100564.13;5036835;28;20111;-84
2022/05/22 05:55:33;;;;;;;24.95;23.00;;;;;;;21.66;100.00;100572.13;5034226;28;20053;-83
2022/05/22 05:58:00;;;;;;;24.83;23.23;;;;;;;21.92;100.00;100564.59;5037020;28;20383;-84
2022/05/22 06:00:27;;;;;;;25.63;23.80;;;;;;;21.91;100.00;100565.69;5030136;28;20060;-80
2022/05/22 06:02:55;;;;;;;25.67;23.55;;;;;;;21.99;98.66;100564.25;5035032;28;20089;-81
2022/05/22 06:05:24;;;;;;;26.30;24.30;;;;;;;21.95;100.00;100553.19;5035121;28;20382;-83
2022/05/22 06:07:52;;;;;;;26.33;23.83;;;;;;;21.74;97.50;100546.38;5022958;28;20473;-84
2022/05/22 06:10:21;;;;;;;26.20;23.95;;;;;;;21.64;98.48;100541.88;5034904;28;20482;-84
2022/05/22 06:12:48;;;;;;;25.88;23.77;;;;;;;21.79;100.00;100545.53;5034552;28;20041;-83
2022/05/22 06:15:19;;;;;;;25.98;24.02;;;;;;;21.78;100.00;100552.03;5035570;28;20042;-84
2022/05/22 06:17:48;;;;;;;25.70;23.95;;;;;;;21.52;100.00;100557.66;5034314;28;20413;-80
2022/05/22 06:20:21;;;;;;;26.13;23.55;;;;;;;21.68;100.00;100553.72;5035055;28;20041;-82
2022/05/22 06:22:54;;;;;;;25.30;23.40;;;;;;;21.86;100.00;100554.13;5033907;28;20111;-84
2022/05/22 06:25:21;;;;;;;25.63;23.52;;;;;;;21.98;100.00;100549.13;5035270;28;20049;-81
2022/05/22 06:27:48;;;;;;;25.58;23.65;;;;;;;22.22;100.00;100551.06;5034302;28;20067;-80
2022/05/22 06:30:18;;;;;;;26.15;23.73;;;;;;;22.17;100.00;100557.34;5035024;28;20486;-84
2022/05/22 06:32:45;;;;;;;26.13;24.05;;;;;;;22.37;100.00;100554.41;5032298;28;20046;-84
2022/05/22 06:35:15;;;;;;;26.08;23.80;;;;;;;22.51;100.00;100546.41;5034152;28;20503;-80
2022/05/22 06:37:43;;;;;;;26.10;24.10;;;;;;;22.80;100.00;100543.56;5035443;28;20053;-83
2022/05/22 06:40:14;;;;;;;26.20;23.77;;;;;;;22.86;100.00;100534.28;5034992;28;20057;-83
2022/05/22 06:42:43;;;;;;;26.45;24.05;;;;;;;22.93;100.00;100531.19;5034824;28;20049;-84
2022/05/22 06:45:14;;;;;;;27.85;25.20;;;;;;;22.99;100.00;100527.34;5024174;28;20053;-80
2022/05/22 06:47:44;;;;;;;26.52;24.20;;;;;;;22.60;97.79;100522.19;5035272;28;20410;-81
2022/05/22 06:50:14;;;;;;;27.90;25.73;;;;;;;22.62;98.92;100531.63;5034486;28;20045;-85
2022/05/22 06:52:41;;;;;;;27.58;25.63;;;;;;;22.60;100.00;100525.72;5035118;28;20133;-84
2022/05/22 06:55:13;;;;;;;27.00;25.10;;;;;;;22.69;100.00;100535.88;5034030;28;20065;-84
2022/05/22 06:57:41;;;;;;;28.13;25.70;;;;;;;23.02;100.00;100540.31;5034159;28;20468;-80
2022/05/22 07:00:14;;;;;;;26.13;24.02;;;;;;;22.82;100.00;100541.38;5033742;28;20064;-82
2022/05/22 07:02:46;;;;;;;26.65;24.63;;;;;;;22.60;100.00;100541.13;5034005;28;20464;-81
2022/05/22 07:05:13;;;;;;;27.92;25.73;;;;;;;22.97;100.00;100539.59;5030884;28;20051;-84
2022/05/22 07:07:41;;;;;;;27.27;25.20;;;;;;;22.77;100.00;100536.03;5033590;28;20497;-83
2022/05/22 07:10:10;;;;;;;27.90;25.75;;;;;;;22.85;100.00;100534.59;5034861;28;20049;-84
2022/05/22 07:12:46;;;;;;;27.42;25.25;;;;;;;22.71;100.00;100539.09;5034970;28;20041;-83
2022/05/22 07:15:14;;;;;;;28.10;25.70;;;;;;;22.74;100.00;100535.81;5034638;28;20050;-83
2022/05/22 07:17:43;;;;;;;28.73;25.95;;;;;;;22.71;100.00;100529.09;5034195;28;20118;-80
2022/05/22 07:20:11;;;;;;;27.48;25.58;;;;;;;22.41;100.00;100519.47;5031810;28;20057;-84
2022/05/22 07:22:40;;;;;;;27.23;25.00;;;;;;;22.93;100.00;100523.09;5034126;28;20045;-83
2022/05/22 07:25:11;;;;;;;28.10;25.40;;;;;;;23.22;100.00;100522.16;5034421;28;20465;-83
2022/05/22 07:27:38;;;;;;;27.77;25.33;;;;;;;23.17;96.04;100520.31;5031641;28;20057;-81
2022/05/22 07:30:06;;;;;;;27.27;25.13;;;;;;;22.91;97.24;100508.25;5036190;28;20072;-80
2022/05/22 07:32:33;;;;;;;26.75;24.58;;;;;;;23.50;94.83;100504.06;5030714;28;20045;-84
2022/05/22 07:35:01;;;;;;;27.90;25.25;;;;;;;23.62;92.70;100514.44;5034375;28;20064;-80
2022/05/22 07:37:28;;;;;;;29.48;26.17;;;;;;;23.43;96.32;100509.88;5034552;28;20049;-81
2022/05/22 07:39:57;;;;;;;26.50;24.52;;;;;;;23.73;96.46;100489.59;5019683;28;20444;-85
2022/05/22 07:42:26;;;;;;;27.55;25.10;;;;;;;23.89;89.28;100500.16;5033434;28;20053;-81
2022/05/22 07:44:52;;;;;;;27.13;24.73;;;;;;;23.71;97.43;100474.72;5033457;28;20057;-82
2022/05/22 07:47:19;;;;;;;28.80;24.67;;;;;;;23.87;98.41;100472.53;5034089;28;20049;-82
2022/05/22 07:52:38;;;;;;;30.33;27.42;;;;;;;23.52;95.44;100459.31;5047185;28;20134;-83
2022/05/22 07:55:14;;;;;;;29.50;25.92;;;;;;;24.02;93.29;100457.88;5035965;28;20049;-81
2022/05/22 07:57:43;;;;;;;26.80;24.80;;;;;;;24.18;96.38;100453.75;5030069;28;20103;-81
2022/05/22 08:00:12;;;;;;;27.65;25.52;;;;;;;24.14;93.06;100450.81;5036288;28;20058;-84
2022/05/22 08:02:41;;;;;;;26.90;25.08;;;;;;;24.29;100.00;100446.19;5030098;28;20052;-81
2022/05/22 08:05:10;;;;;;;27.30;25.40;;;;;;;24.15;99.26;100448.94;5028084;28;20052;-81
2022/05/22 08:07:37;;;;;;;26.67;24.90;;;;;;;24.07;98.01;100439.56;5033323;28;20114;-81
2022/05/22 08:10:05;;;;;;;26.55;24.42;;;;;;;24.23;87.39;100438.13;5032690;28;20056;-82
2022/05/22 08:12:36;;;;;;;27.33;25.05;;;;;;;24.32;91.71;100437.44;5032172;28;20042;-81
2022/05/22 08:15:07;;;;;;;28.13;26.08;;;;;;;24.19;90.63;100433.63;5031868;28;20046;-82
2022/05/22 08:17:36;;;;;;;103.45;72.70;;;;;;;23.75;96.48;100427.75;5032655;28;20041;-80
2022/05/22 08:20:04;;;;;;;27.88;25.98;;;;;;;24.17;85.71;100427.72;5032234;28;20079;-81
2022/05/22 08:22:31;;;;;;;29.35;27.35;;;;;;;24.25;82.62;100418.06;5033935;28;20128;-82
2022/05/22 08:24:58;;;;;;;27.67;25.65;;;;;;;24.12;89.51;100414.28;5033065;28;20453;-81
2022/05/22 08:27:25;;;;;;;31.10;29.00;;;;;;;24.34;87.66;100416.22;5032408;28;20062;-80
2022/05/22 08:29:52;;;;;;;38.42;34.78;;;;;;;23.84;83.79;100408.03;5032644;28;20057;-81
2022/05/22 08:32:20;;;;;;;35.97;33.08;;;;;;;23.57;93.18;100408.81;5033340;28;20054;-81
2022/05/22 08:34:47;;;;;;;40.83;36.95;;;;;;;23.70;92.08;100392.59;5032916;28;20042;-82
2022/05/22 08:37:13;;;;;;;94.00;73.57;;;;;;;23.63;86.27;100394.06;5032922;28;20068;-82
2022/05/22 08:39:40;;;;;;;51.22;45.92;;;;;;;24.23;83.32;100397.44;5032394;28;20061;-80
2022/05/22 08:42:10;;;;;;;28.10;25.58;;;;;;;24.74;78.48;100392.78;5032725;28;20409;-82
2022/05/22 08:44:38;;;;;;;27.40;25.55;;;;;;;24.58;74.14;100392.34;5032802;28;20056;-81
2022/05/22 08:47:13;;;;;;;28.85;26.75;;;;;;;24.81;79.03;100387.75;5032841;28;20457;-82
2022/05/22 08:49:47;;;;;;;31.50;29.20;;;;;;;24.80;81.83;100383.41;5032667;28;20041;-81
2022/05/22 08:52:18;;;;;;;43.40;39.20;;;;;;;23.91;84.69;100384.06;5030464;28;20045;-80
2022/05/22 08:54:51;;;;;;;108.05;77.28;;;;;;;24.17;76.44;100384.28;5030726;28;20484;-81
2022/05/22 09:00:11;;;;;;;85.15;62.75;;;;;;;24.19;76.19;100373.94;5032891;28;20405;-81
2022/05/22 09:02:45;;;;;;;350.02;192.32;;;;;;;23.93;78.61;100368.25;5032373;28;20060;-80
2022/05/22 09:05:17;;;;;;;266.60;133.75;;;;;;;24.45;76.08;100355.22;5030195;28;20045;-81
2022/05/22 09:07:53;;;;;;;47.35;42.58;;;;;;;24.63;69.55;100358.84;5033317;28;20049;-82
2022/05/22 09:10:23;;;;;;;52.35;47.55;;;;;;;24.28;75.76;100344.97;5032106;28;20107;-80
2022/05/22 09:13:17;;;;;;;80.32;71.95;;;;;;;25.35;72.61;100349.69;5032274;28;20493;-82
2022/05/22 09:15:47;;;;;;;106.28;67.32;;;;;;;24.14;75.58;100338.78;5032798;28;20466;-80
2022/05/22 09:18:24;;;;;;;56.20;50.47;;;;;;;24.65;74.70;100345.75;5032194;28;20059;-81
2022/05/22 09:20:56;;;;;;;43.38;39.17;;;;;;;24.59;73.04;100336.94;5032201;28;20063;-81
2022/05/22 09:23:39;;;;;;;47.67;42.70;;;;;;;24.37;88.87;100331.50;5032312;28;20060;-80
2022/05/22 09:26:10;;;;;;;226.20;126.70;;;;;;;24.41;76.61;100333.25;5030053;28;20421;-81
2022/05/22 09:28:51;;;;;;;603.72;289.70;;;;;;;24.36;72.93;100327.97;5032588;28;20126;-81
2022/05/22 09:31:27;;;;;;;296.48;154.30;;;;;;;24.05;92.38;100327.84;5030783;28;20123;-81
2022/05/22 09:34:06;;;;;;;297.65;171.20;;;;;;;23.52;87.35;100325.72;5032427;28;20045;-82
2022/05/22 09:36:48;;;;;;;103.90;78.70;;;;;;;24.74;71.38;100305.91;5036581;28;20389;-81
2022/05/22 09:39:28;;;;;;;100.00;63.80;;;;;;;25.35;71.36;100307.00;5035773;28;20050;-82
2022/05/22 09:42:06;;;;;;;469.50;261.80;;;;;;;24.27;77.40;100299.16;5035909;28;20056;-81
2022/05/22 09:45:07;;;;;;;29.88;27.70;;;;;;;24.88;64.19;100300.41;5035572;28;20081;-81
2022/05/22 09:47:54;;;;;;;124.03;84.32;;;;;;;25.46;68.26;100291.22;5035665;28;20078;-81
2022/05/22 09:50:28;;;;;;;144.45;101.63;;;;;;;24.64;70.36;100290.66;5034241;28;20049;-81
2022/05/22 09:53:04;;;;;;;38.45;34.97;;;;;;;25.17;69.77;100280.88;5028516;28;20095;-81
2022/05/22 09:55:42;;;;;;;44.38;40.78;;;;;;;25.69;60.26;100288.38;5034707;28;20050;-81
2022/05/22 09:58:31;;;;;;;29.15;26.95;;;;;;;25.83;52.92;100271.94;5035435;28;20084;-80
2022/05/22 10:01:10;;;;;;;62.15;55.45;;;;;;;24.63;66.82;100271.97;5032786;28;20131;-81
2022/05/22 10:03:48;;;;;;;27.30;25.52;;;;;;;26.23;44.85;100272.56;5035404;28;20048;-81
2022/05/22 10:06:28;;;;;;;39.85;36.45;;;;;;;25.01;59.60;100253.31;5035699;28;20049;-82
2022/05/22 10:09:07;;;;;;;74.25;57.95;;;;;;;25.12;58.60;100264.72;5031415;28;20060;-81
2022/05/22 10:11:39;;;;;;;79.82;59.45;;;;;;;25.30;57.11;100252.81;5031472;28;20049;-82
2022/05/22 10:14:24;;;;;;;204.18;143.23;;;;;;;24.66;62.26;100255.06;5034090;28;20049;-80
2022/05/22 10:17:12;;;;;;;30.15;27.75;;;;;;;25.29;59.53;100258.53;5027348;28;20049;-81
2022/05/22 10:19:48;;;;;;;54.38;48.85;;;;;;;25.96;48.17;100258.22;5028273;28;20045;-82
2022/05/22 10:22:27;;;;;;;30.80;28.40;;;;;;;26.21;49.45;100245.69;5035388;28;20092;-80
2022/05/22 10:25:10;;;;;;;31.88;29.58;;;;;;;24.65;60.53;100253.47;5034688;28;20041;-82
2022/05/22 10:27:51;;;;;;;;;;;;;;;24.72;59.91;100239.44;5031513;28;20115;-82
2022/05/22 10:30:21;;;;;;;34.40;32.10;;;;;;;24.57;64.63;100240.63;5031837;28;19921;-82
2022/05/22 10:32:55;;;;;;;78.53;71.75;;;;;;;25.20;56.59;100246.84;5034153;28;20045;-81
2022/05/22 10:35:26;;;;;;;68.35;62.88;;;;;;;24.32;62.01;100239.34;5034832;28;20049;-81
2022/05/22 10:38:01;;;;;;;74.70;67.63;;;;;;;24.53;60.90;100243.16;5032985;28;20398;-81
2022/05/22 10:42:44;;;;;;;69.18;63.03;;;;;;;24.57;57.52;100240.63;5035240;28;20052;-81
2022/05/22 10:43:16;;;;;;;70.32;64.35;;;;;;;25.02;53.51;100233.16;5034188;28;20477;-81
2022/05/22 10:45:43;;;;;;;73.07;66.80;;;;;;;25.10;54.19;100237.03;5035248;28;20128;-82
2022/05/22 10:48:12;;;;;;;67.63;61.70;;;;;;;26.16;44.39;100234.97;5034733;28;20371;-81
2022/05/22 10:50:50;;;;;;;58.60;53.70;;;;;;;25.51;48.31;100233.97;5034692;28;20123;-82
2022/05/22 10:53:32;;;;;;;66.15;60.05;;;;;;;25.08;54.28;100229.22;5031966;28;20512;-81
2022/05/22 10:56:06;;;;;;;60.33;55.13;;;;;;;25.23;49.43;100219.03;5032234;28;20547;-82
2022/05/22 10:58:35;;;;;;;69.38;64.07;;;;;;;26.34;46.40;100229.50;5034150;28;20118;-80
2022/05/22 11:01:05;;;;;;;75.68;69.28;;;;;;;24.85;50.44;100216.81;5033738;28;20049;-80
2022/05/22 11:03:34;;;;;;;111.65;102.00;;;;;;;25.09;50.45;100213.72;5034695;28;20088;-81
2022/05/22 11:06:03;;;;;;;78.90;72.00;;;;;;;25.31;48.42;100216.34;5034663;28;20057;-81
2022/05/22 11:08:34;;;;;;;103.05;91.80;;;;;;;25.56;42.49;100211.25;5034044;28;20055;-83
2022/05/22 11:11:16;;;;;;;68.72;62.90;;;;;;;24.10;62.21;100221.16;5030741;28;20051;-81
2022/05/22 11:13:43;;;;;;;71.00;64.82;;;;;;;25.06;49.42;100220.56;5031028;28;20049;-80
2022/05/22 11:16:19;;;;;;;71.50;65.50;;;;;;;24.61;56.40;100217.19;5033820;28;20049;-80
2022/05/22 11:18:47;;;;;;;77.68;70.63;;;;;;;26.15;43.14;100211.63;5032525;28;20049;-83
2022/05/22 11:21:33;;;;;;;61.53;56.22;;;;;;;26.89;41.03;100212.38;5034003;28;20417;-81
2022/05/22 11:24:18;;;;;;;67.03;60.90;;;;;;;24.76;54.05;100210.56;5033733;28;20053;-81
2022/05/22 11:26:59;;;;;;;74.05;67.95;;;;;;;25.64;47.44;100207.75;5033502;28;20470;-81
2022/05/22 11:29:48;;;;;;;74.10;68.00;;;;;;;24.99;49.85;100203.91;5033540;28;20136;-80
2022/05/22 11:32:28;;;;;;;81.00;73.32;;;;;;;26.01;49.28;100203.63;5030473;28;20045;-81
2022/05/22 11:35:39;;;;;;;73.10;66.78;;;;;;;26.09;50.75;100198.50;5030317;28;20057;-85